Terminal Aerodrome Forecast
Issued by NWS

Current Version | Previous Version | Text Only | Print | Product List | Glossary On
Versions: 1 2 3 4 5 6 7 8 9 10 11 12 13 14 15 16 17 18
825
FTUS41 KGYX 231120
TAFPSM
TAF
KPSM 231120Z 2312/2412 25009KT P6SM FEW070 BKN200
     FM231600 26010G16KT P6SM SCT050
     FM240000 28003KT P6SM SKC=

USA.gov is the U.S. government's official web portal to all federal, state and local government web resources and services.